createdAt,value
2018-09-05T00:20:46.872Z,16.47
2018-09-05T00:23:16.189Z,15.43
2018-09-05T00:25:45.230Z,14.90
2018-09-05T00:28:14.285Z,15.00
2018-09-05T00:30:43.471Z,14.03
2018-09-05T00:33:12.537Z,18.00
2018-09-05T00:35:41.636Z,18.80
2018-09-05T00:38:10.673Z,16.73
2018-09-05T00:40:39.714Z,14.77
2018-09-05T00:43:08.771Z,17.97
2018-09-05T00:45:37.851Z,16.20
2018-09-05T00:48:06.912Z,16.07
2018-09-05T00:50:35.972Z,16.63
2018-09-05T00:53:05.079Z,17.23
2018-09-05T00:55:34.267Z,16.30
2018-09-05T00:58:03.456Z,22.00
2018-09-05T01:00:32.979Z,15.40
2018-09-05T01:03:02.433Z,16.47
2018-09-05T01:05:31.656Z,15.93
2018-09-05T01:08:00.931Z,17.13
2018-09-05T01:10:30.097Z,18.80
2018-09-05T01:12:59.162Z,16.33
2018-09-05T01:15:28.212Z,15.37
2018-09-05T01:17:57.247Z,16.37
2018-09-05T01:20:26.311Z,17.47
2018-09-05T01:22:55.370Z,18.10
2018-09-05T01:25:24.502Z,13.53
2018-09-05T01:27:53.537Z,16.43
2018-09-05T01:30:23.782Z,20.67
2018-09-05T01:32:52.788Z,18.30
2018-09-05T01:35:21.874Z,21.27
2018-09-05T01:37:50.948Z,23.43
2018-09-05T01:40:20.121Z,21.63
2018-09-05T01:42:49.188Z,22.30
2018-09-05T01:45:18.231Z,24.57
2018-09-05T01:47:47.275Z,18.87
2018-09-05T01:50:16.350Z,19.23
2018-09-05T01:52:45.402Z,19.47
2018-09-05T01:55:14.581Z,27.03
2018-09-05T01:57:43.713Z,22.53
2018-09-05T02:00:17.021Z,18.70
2018-09-05T02:02:46.052Z,22.23
2018-09-05T02:05:15.208Z,21.73
2018-09-05T02:07:44.891Z,19.83
2018-09-05T02:10:14.134Z,21.37
2018-09-05T02:12:43.392Z,21.20
2018-09-05T02:15:12.534Z,21.87
2018-09-05T02:17:41.665Z,24.60
2018-09-05T02:20:11.252Z,22.33
2018-09-05T02:22:40.340Z,22.70
2018-09-05T02:25:09.373Z,25.93
2018-09-05T02:27:38.440Z,23.33
2018-09-05T02:30:07.502Z,23.67
2018-09-05T02:32:36.594Z,23.20
2018-09-05T02:35:06.025Z,28.23
2018-09-05T02:37:36.150Z,23.17
2018-09-05T02:40:05.703Z,30.43
2018-09-05T02:42:34.748Z,25.50
2018-09-05T02:45:03.929Z,28.20
2018-09-05T02:47:32.959Z,30.20
2018-09-05T02:50:02.014Z,27.93
2018-09-05T02:52:31.085Z,24.67
2018-09-05T02:55:00.129Z,29.00
2018-09-05T02:57:29.200Z,31.23
2018-09-05T02:59:58.249Z,34.03
2018-09-05T03:02:27.268Z,27.07
2018-09-05T03:04:56.344Z,29.27
2018-09-05T03:07:25.457Z,30.60
2018-09-05T03:09:54.589Z,27.30
2018-09-05T03:12:23.852Z,33.40
2018-09-05T03:14:53.269Z,30.30
2018-09-05T03:17:22.529Z,26.90
2018-09-05T03:19:51.726Z,25.27
2018-09-05T03:22:20.869Z,27.50
2018-09-05T03:24:49.959Z,26.30
2018-09-05T03:27:18.975Z,33.33
2018-09-05T03:29:48.034Z,28.63
2018-09-05T03:32:17.199Z,30.90
2018-09-05T03:34:46.115Z,32.33
2018-09-05T03:37:15.201Z,30.10
2018-09-05T03:39:44.254Z,29.67
2018-09-05T03:42:13.307Z,28.40
2018-09-05T03:44:42.352Z,27.87
2018-09-05T03:47:11.438Z,32.53
2018-09-05T03:49:40.509Z,29.83
2018-09-05T03:52:09.511Z,31.33
2018-09-05T03:54:38.578Z,29.67
2018-09-05T03:57:07.825Z,32.60
2018-09-05T03:59:36.904Z,33.23
2018-09-05T04:02:06.005Z,29.00
2018-09-05T04:04:35.037Z,33.63
2018-09-05T04:07:04.126Z,34.37
2018-09-05T04:09:33.269Z,34.17
2018-09-05T04:12:02.849Z,34.33
2018-09-05T04:14:32.349Z,36.07
2018-09-05T04:17:01.791Z,30.30
2018-09-05T04:19:31.152Z,29.20
2018-09-05T04:22:00.665Z,32.33
2018-09-05T04:24:29.771Z,31.50
2018-09-05T04:26:59.053Z,32.30
2018-09-05T04:29:28.165Z,37.20
2018-09-05T04:31:57.179Z,36.83
2018-09-05T04:34:26.210Z,40.47
2018-09-05T04:36:55.569Z,42.97
2018-09-05T04:39:24.614Z,48.90
2018-09-05T04:41:53.741Z,45.33
2018-09-05T04:44:22.829Z,64.27
2018-09-05T04:46:51.958Z,53.33
2018-09-05T04:49:21.118Z,70.37
2018-09-05T04:51:50.217Z,73.57
2018-09-05T04:54:19.303Z,117.27
2018-09-05T04:56:48.557Z,61.60
2018-09-05T04:59:18.309Z,69.57
2018-09-05T05:01:47.475Z,65.27
2018-09-05T05:04:17.108Z,91.93
2018-09-05T05:06:46.360Z,72.37
2018-09-05T05:09:15.837Z,86.30
2018-09-05T05:11:45.905Z,49.53
2018-09-05T05:14:15.360Z,83.70
2018-09-05T05:16:45.677Z,53.17
2018-09-05T05:19:15.339Z,60.17
2018-09-05T05:21:45.309Z,76.40
2018-09-05T05:24:14.620Z,46.50
2018-09-05T05:26:46.259Z,70.70
2018-09-05T05:29:15.605Z,88.23
2018-09-05T05:31:45.907Z,49.90
2018-09-05T05:34:15.528Z,81.53
2018-09-05T05:36:44.739Z,103.47
2018-09-05T05:39:14.650Z,36.87
2018-09-05T05:41:44.249Z,38.40
2018-09-05T05:44:13.512Z,106.87
2018-09-05T05:46:42.854Z,48.83
2018-09-05T05:49:12.052Z,59.53
2018-09-05T05:51:42.186Z,50.77
2018-09-05T05:54:11.265Z,65.43
2018-09-05T05:56:40.359Z,42.43
2018-09-05T05:59:09.462Z,67.63
2018-09-05T06:01:38.560Z,47.60
2018-09-05T06:04:07.653Z,46.30
2018-09-05T06:06:36.777Z,34.63
2018-09-05T06:09:09.190Z,71.50
2018-09-05T06:11:38.295Z,33.13
2018-09-05T06:14:07.411Z,40.73
2018-09-05T06:16:36.602Z,38.17
2018-09-05T06:19:08.540Z,32.63
2018-09-05T06:21:37.681Z,43.30
2018-09-05T06:24:06.777Z,34.30
2018-09-05T06:26:35.917Z,29.43
2018-09-05T06:29:05.036Z,27.67
2018-09-05T06:31:34.250Z,29.57
2018-09-05T06:34:03.395Z,31.23
2018-09-05T06:36:32.517Z,37.07
2018-09-05T06:39:01.665Z,25.40
2018-09-05T06:41:30.690Z,31.83
2018-09-05T06:43:59.945Z,24.30
2018-09-05T06:46:29.528Z,31.70
2018-09-05T06:48:58.746Z,29.20
2018-09-05T06:51:28.857Z,29.27
2018-09-05T06:53:58.067Z,34.17
2018-09-05T06:56:27.512Z,28.87
2018-09-05T06:58:57.016Z,30.23
2018-09-05T07:01:26.238Z,29.50
2018-09-05T07:03:55.389Z,29.07
2018-09-05T07:06:26.753Z,28.90
2018-09-05T07:08:56.176Z,22.40
2018-09-05T07:11:25.504Z,22.43
2018-09-05T07:13:54.914Z,20.67
2018-09-05T07:16:24.539Z,22.33
2018-09-05T07:18:54.942Z,18.27
2018-09-05T07:21:24.260Z,16.97
2018-09-05T07:23:54.678Z,18.27
2018-09-05T07:26:23.726Z,19.63
2018-09-05T07:28:52.769Z,17.30
2018-09-05T07:31:21.884Z,13.13
2018-09-05T07:33:50.907Z,15.17
2018-09-05T07:36:22.374Z,14.13
2018-09-05T07:38:51.418Z,12.67
2018-09-05T07:41:20.592Z,16.70
2018-09-05T07:43:50.832Z,14.53
2018-09-05T07:46:26.043Z,12.30
2018-09-05T07:48:57.944Z,17.47
2018-09-05T07:51:33.595Z,12.97
2018-09-05T07:54:14.716Z,12.63
2018-09-05T08:04:24.465Z,16.73
2018-09-05T08:07:11.021Z,15.13
2018-09-05T08:09:58.827Z,15.63
2018-09-05T08:12:43.872Z,14.33
2018-09-05T08:15:47.809Z,12.87
2018-09-05T08:18:58.326Z,13.30
2018-09-05T08:21:42.136Z,13.10
2018-09-05T08:28:43.815Z,14.38
2018-09-05T08:38:11.926Z,12.55
2018-09-05T08:41:21.045Z,15.70
2018-09-05T08:51:23.012Z,13.75
2018-09-05T08:53:56.462Z,13.40
2018-09-05T08:59:51.586Z,9.20
2018-09-05T09:02:57.121Z,13.00
2018-09-05T09:30:05.157Z,8.53
2018-09-05T09:32:34.566Z,7.20
2018-09-05T09:35:03.646Z,6.70
2018-09-05T09:37:32.849Z,7.90
2018-09-05T09:40:02.926Z,10.57
2018-09-05T09:42:32.001Z,7.37
2018-09-05T09:45:01.485Z,8.47
2018-09-05T09:47:30.814Z,9.63
2018-09-05T09:50:01.193Z,8.20
2018-09-05T09:52:30.289Z,7.87
2018-09-05T09:54:59.412Z,7.50
2018-09-05T09:57:28.702Z,7.97
2018-09-05T09:59:57.844Z,8.20
2018-09-05T10:02:32.397Z,10.00
2018-09-05T10:05:06.826Z,11.63
2018-09-05T10:11:02.840Z,7.30
2018-09-05T10:13:37.669Z,7.50
2018-09-05T10:16:12.167Z,7.27
2018-09-05T10:18:44.164Z,9.93
2018-09-05T10:21:13.468Z,8.97
2018-09-05T10:23:42.646Z,6.20
2018-09-05T10:26:11.890Z,7.20
2018-09-05T10:28:41.249Z,12.67
2018-09-05T10:31:10.299Z,9.90
2018-09-05T10:33:39.594Z,8.10
2018-09-05T10:36:08.762Z,7.13
2018-09-05T10:38:37.885Z,7.80
2018-09-05T10:41:07.012Z,10.40
2018-09-05T10:43:36.209Z,7.83
2018-09-05T10:46:05.357Z,11.13
2018-09-05T10:48:34.774Z,6.80
2018-09-05T10:51:04.017Z,5.80
2018-09-05T10:53:33.372Z,8.27
2018-09-05T10:56:02.545Z,8.83
2018-09-05T10:58:31.709Z,11.63
2018-09-05T11:01:00.939Z,6.47
2018-09-05T11:03:30.110Z,7.80
2018-09-05T11:05:59.183Z,10.93
2018-09-05T11:08:28.362Z,6.83
2018-09-05T11:10:57.518Z,7.40
2018-09-05T11:13:26.598Z,7.87
2018-09-05T11:15:55.846Z,7.83
2018-09-05T11:18:24.984Z,8.10
2018-09-05T11:20:54.100Z,6.70
2018-09-05T11:23:23.430Z,11.10
2018-09-05T11:25:52.585Z,5.20
2018-09-05T11:28:21.770Z,6.33
2018-09-05T11:30:50.872Z,6.23
2018-09-05T11:33:20.073Z,6.80
2018-09-05T11:35:49.277Z,6.57
2018-09-05T11:38:18.455Z,8.07
2018-09-05T11:40:47.586Z,6.80
2018-09-05T11:43:16.620Z,5.90
2018-09-05T11:45:46.354Z,7.63
2018-09-05T11:48:15.485Z,6.10
2018-09-05T11:50:44.635Z,8.83
2018-09-05T11:53:14.114Z,6.37
2018-09-05T11:55:43.232Z,6.73
2018-09-05T11:58:12.315Z,8.47
2018-09-05T12:00:41.570Z,7.23
2018-09-05T12:03:10.797Z,5.30
2018-09-05T12:05:39.982Z,5.50
2018-09-05T12:08:09.077Z,5.10
2018-09-05T12:10:38.224Z,8.37
2018-09-05T12:13:07.278Z,9.00
2018-09-05T12:15:36.431Z,4.77
2018-09-05T12:18:05.699Z,8.83
2018-09-05T12:20:34.813Z,5.60
2018-09-05T12:23:03.965Z,8.73
2018-09-05T12:25:33.838Z,6.37
2018-09-05T12:28:03.247Z,5.83
2018-09-05T12:30:32.410Z,5.50
2018-09-05T12:33:01.533Z,6.03
2018-09-05T12:35:30.738Z,8.27
2018-09-05T12:37:59.839Z,6.40
2018-09-05T12:40:28.958Z,8.97
2018-09-05T12:42:58.107Z,4.70
2018-09-05T12:45:27.269Z,9.00
2018-09-05T12:47:56.403Z,5.03
2018-09-05T12:50:25.657Z,7.23
2018-09-05T12:52:54.753Z,6.07
2018-09-05T12:55:23.902Z,5.77
2018-09-05T12:57:52.984Z,6.33
2018-09-05T13:00:22.050Z,7.10
2018-09-05T13:02:51.156Z,5.37
2018-09-05T13:05:20.443Z,6.33
2018-09-05T13:07:49.576Z,10.10
2018-09-05T13:10:18.675Z,8.53
2018-09-05T13:12:47.787Z,9.50
2018-09-05T13:15:16.966Z,6.40
2018-09-05T13:17:46.060Z,5.90
2018-09-05T13:20:15.375Z,6.87
2018-09-05T13:22:44.863Z,10.37
2018-09-05T13:25:14.102Z,4.97
2018-09-05T13:27:43.308Z,7.03
2018-09-05T13:30:12.461Z,6.57
2018-09-05T13:32:41.615Z,9.80
2018-09-05T13:35:11.090Z,6.70
2018-09-05T13:37:40.220Z,10.20
2018-09-05T13:40:09.368Z,6.10
2018-09-05T13:42:38.421Z,5.23
2018-09-05T13:45:07.592Z,5.80
2018-09-05T13:47:36.728Z,7.63
2018-09-05T13:50:05.834Z,5.83
2018-09-05T13:52:35.004Z,6.13
2018-09-05T13:55:04.180Z,8.40
2018-09-05T13:57:33.253Z,5.03
2018-09-05T14:00:02.635Z,5.90
2018-09-05T14:02:31.703Z,5.63
2018-09-05T14:05:00.876Z,7.37
2018-09-05T14:07:30.117Z,5.73
2018-09-05T14:09:59.392Z,7.80
2018-09-05T14:12:28.745Z,5.80
2018-09-05T14:14:57.990Z,10.07
2018-09-05T14:17:27.209Z,4.60
2018-09-05T14:19:56.558Z,12.37
2018-09-05T14:22:25.816Z,5.80
2018-09-05T14:24:55.893Z,5.40
2018-09-05T14:27:25.518Z,4.80
2018-09-05T14:29:54.593Z,6.10
2018-09-05T14:32:23.910Z,6.10
2018-09-05T14:34:53.052Z,12.00
2018-09-05T14:37:22.257Z,12.37
2018-09-05T14:39:52.523Z,4.73
2018-09-05T14:42:24.111Z,7.07
2018-09-05T14:44:53.311Z,7.10
2018-09-05T14:47:22.503Z,9.20
2018-09-05T14:49:51.822Z,8.00
2018-09-05T14:52:21.038Z,6.70
2018-09-05T14:54:50.417Z,9.60
2018-09-05T14:57:19.688Z,4.60
2018-09-05T14:59:48.838Z,9.43
2018-09-05T15:02:18.239Z,5.43
2018-09-05T15:04:47.462Z,7.90
2018-09-05T15:07:17.383Z,6.33
2018-09-05T15:09:46.442Z,5.30
2018-09-05T15:12:15.589Z,5.03
2018-09-05T15:14:44.694Z,10.07
2018-09-05T15:17:13.889Z,8.50
2018-09-05T15:19:43.084Z,9.93
2018-09-05T15:22:12.231Z,5.90
2018-09-05T15:24:41.366Z,4.70
2018-09-05T15:27:10.533Z,8.90
2018-09-05T15:29:39.629Z,6.17
2018-09-05T15:32:09.119Z,6.97
2018-09-05T15:34:38.406Z,5.80
2018-09-05T15:37:07.871Z,6.27
2018-09-05T15:39:37.169Z,5.30
2018-09-05T15:42:06.590Z,5.83
2018-09-05T15:44:36.058Z,6.33
2018-09-05T15:47:05.643Z,5.87
2018-09-05T15:49:35.456Z,4.87
2018-09-05T15:52:04.633Z,5.90
2018-09-05T15:54:33.794Z,7.33
2018-09-05T15:57:02.918Z,6.13
2018-09-05T15:59:32.006Z,5.43
2018-09-05T16:02:01.062Z,7.27
2018-09-05T16:04:30.200Z,17.90
2018-09-05T16:06:59.418Z,5.00
2018-09-05T16:09:28.561Z,7.10
2018-09-05T16:11:57.639Z,5.27
2018-09-05T16:14:26.751Z,6.00
2018-09-05T16:16:55.882Z,5.57
2018-09-05T16:19:25.013Z,5.50
2018-09-05T16:21:54.343Z,6.40
2018-09-05T16:24:24.287Z,5.10
2018-09-05T16:26:53.472Z,4.50
2018-09-05T16:29:22.704Z,8.27
2018-09-05T16:31:51.877Z,5.93
2018-09-05T16:34:21.072Z,7.40
2018-09-05T16:36:50.214Z,5.47
2018-09-05T16:39:19.393Z,6.83
2018-09-05T16:41:48.832Z,4.97
2018-09-05T16:44:18.243Z,6.77
2018-09-05T16:46:47.905Z,6.07
2018-09-05T16:49:18.078Z,6.63
2018-09-05T16:51:47.459Z,9.57
2018-09-05T16:54:16.726Z,8.53
2018-09-05T16:56:45.834Z,5.77
2018-09-05T16:59:15.098Z,6.20
2018-09-05T17:01:44.204Z,9.03
2018-09-05T17:04:13.304Z,17.13
2018-09-05T17:06:43.073Z,8.20
2018-09-05T17:09:13.156Z,7.20
2018-09-05T17:11:42.231Z,7.17
2018-09-05T17:14:11.328Z,8.10
2018-09-05T17:16:40.526Z,6.40
2018-09-05T17:19:09.688Z,7.47
2018-09-05T17:21:38.884Z,7.60
2018-09-05T17:24:08.049Z,7.10
2018-09-05T17:26:37.300Z,9.13
2018-09-05T17:29:07.147Z,7.87
2018-09-05T17:31:36.314Z,10.10
2018-09-05T17:34:07.316Z,6.30
2018-09-05T17:36:36.423Z,6.20
2018-09-05T17:39:09.405Z,9.20
2018-09-05T17:41:38.597Z,6.77
2018-09-05T17:44:08.413Z,6.90
2018-09-05T17:46:37.713Z,7.30
2018-09-05T17:49:07.598Z,6.60
2018-09-05T17:51:36.756Z,5.40
2018-09-05T17:54:06.052Z,7.23
2018-09-05T17:56:35.197Z,6.07
2018-09-05T17:59:04.295Z,6.70
2018-09-05T18:01:33.408Z,9.33
2018-09-05T18:04:02.790Z,7.73
2018-09-05T18:06:32.399Z,7.60
2018-09-05T18:09:02.083Z,8.27
2018-09-05T18:11:31.430Z,7.40
2018-09-05T18:14:00.569Z,6.70
2018-09-05T18:16:29.970Z,7.50
2018-09-05T18:18:59.340Z,5.93
2018-09-05T18:21:29.354Z,7.90
2018-09-05T18:23:59.234Z,8.40
2018-09-05T18:26:28.489Z,9.33
2018-09-05T18:28:57.652Z,7.87
2018-09-05T18:31:27.033Z,8.03
2018-09-05T18:33:56.343Z,5.20
2018-09-05T18:36:25.687Z,5.37
2018-09-05T18:38:54.961Z,4.80
2018-09-05T18:41:24.410Z,8.90
2018-09-05T18:43:54.368Z,8.83
2018-09-05T18:46:23.487Z,6.10
2018-09-05T18:48:52.703Z,5.67
2018-09-05T18:51:21.862Z,5.27
2018-09-05T18:53:51.026Z,5.77
2018-09-05T18:56:20.213Z,4.90
2018-09-05T18:58:49.342Z,5.80
2018-09-05T19:01:18.526Z,8.73
2018-09-05T19:03:47.645Z,6.70
2018-09-05T19:06:16.937Z,6.07
2018-09-05T19:08:46.166Z,10.37
2018-09-05T19:11:15.394Z,7.80
2018-09-05T19:13:44.779Z,4.77
2018-09-05T19:16:14.106Z,8.33
2018-09-05T19:18:43.522Z,6.70
2018-09-05T19:21:13.180Z,5.87
2018-09-05T19:23:42.721Z,7.07
2018-09-05T19:26:12.474Z,7.50
2018-09-05T19:28:41.900Z,6.93
2018-09-05T19:31:11.333Z,6.20
2018-09-05T19:33:40.652Z,6.10
2018-09-05T19:36:10.487Z,8.13
2018-09-05T19:38:40.175Z,5.30
2018-09-05T19:41:09.353Z,8.23
2018-09-05T19:43:38.769Z,6.07
2018-09-05T19:46:08.028Z,12.90
2018-09-05T19:48:37.205Z,6.20
2018-09-05T19:51:06.336Z,5.20
2018-09-05T19:53:35.472Z,6.27
2018-09-05T19:56:05.513Z,6.43
2018-09-05T19:58:34.684Z,5.00
2018-09-05T20:01:03.808Z,10.00
2018-09-05T20:03:33.122Z,9.30
2018-09-05T20:06:02.301Z,5.90
2018-09-05T20:08:31.574Z,5.53
2018-09-05T20:11:00.956Z,5.90
2018-09-05T20:13:30.728Z,10.13
2018-09-05T20:15:59.897Z,7.47
2018-09-05T20:18:29.069Z,10.13
2018-09-05T20:20:58.201Z,6.37
2018-09-05T20:23:28.788Z,5.90
2018-09-05T20:25:58.097Z,8.30
2018-09-05T20:28:27.248Z,8.60
2018-09-05T20:30:56.760Z,8.17
2018-09-05T20:33:26.054Z,5.83
2018-09-05T20:35:55.513Z,8.30
2018-09-05T20:38:24.670Z,5.70
2018-09-05T20:40:54.010Z,6.63
2018-09-05T20:43:23.347Z,7.43
2018-09-05T20:45:53.700Z,10.13
2018-09-05T20:48:23.004Z,6.43
2018-09-05T20:50:52.275Z,7.23
2018-09-05T20:53:21.511Z,6.20
2018-09-05T20:55:50.769Z,6.83
2018-09-05T20:58:19.933Z,7.33
2018-09-05T21:00:49.287Z,11.40
2018-09-05T21:03:18.466Z,9.47
2018-09-05T21:05:47.599Z,7.53
2018-09-05T21:08:16.795Z,7.47
2018-09-05T21:10:45.891Z,6.37
2018-09-05T21:13:15.026Z,7.90
2018-09-05T21:15:44.102Z,5.90
2018-09-05T21:18:13.242Z,7.63
2018-09-05T21:20:42.281Z,5.97
2018-09-05T21:23:11.447Z,7.80
2018-09-05T21:25:40.524Z,6.10
2018-09-05T21:28:09.737Z,8.03
2018-09-05T21:30:43.811Z,6.80
2018-09-05T21:33:12.963Z,7.53
2018-09-05T21:35:41.973Z,11.23
2018-09-05T21:38:11.075Z,6.47
2018-09-05T21:40:40.290Z,5.77
2018-09-05T21:43:09.493Z,8.27
2018-09-05T21:45:38.888Z,7.90
2018-09-05T21:48:08.132Z,7.37
2018-09-05T21:50:37.441Z,6.40
2018-09-05T21:53:06.674Z,7.13
2018-09-05T21:55:35.904Z,8.57
2018-09-05T21:58:05.056Z,7.30
2018-09-05T22:00:34.397Z,6.17
2018-09-05T22:03:03.553Z,14.00
2018-09-05T22:05:32.643Z,8.63
2018-09-05T22:08:02.765Z,8.90
2018-09-05T22:10:31.884Z,6.63
2018-09-05T22:13:00.974Z,6.40
2018-09-05T22:15:34.274Z,6.70
2018-09-05T22:18:03.526Z,7.47
2018-09-05T22:20:32.611Z,8.40
2018-09-05T22:23:01.732Z,15.73
2018-09-05T22:25:31.133Z,7.73
2018-09-05T22:28:00.742Z,6.60
2018-09-05T22:30:30.109Z,7.50
2018-09-05T22:32:59.305Z,7.10
2018-09-05T22:35:28.624Z,7.90
2018-09-05T22:37:58.142Z,9.20
2018-09-05T22:40:30.080Z,8.50
2018-09-05T22:43:16.141Z,7.67
2018-09-05T22:46:02.231Z,13.30
2018-09-05T22:52:14.113Z,7.70
2018-09-05T22:57:20.064Z,7.17
2018-09-05T23:00:08.900Z,8.87
2018-09-05T23:03:07.741Z,7.50
2018-09-05T23:06:02.191Z,8.23
2018-09-05T23:08:37.356Z,7.60
2018-09-05T23:11:23.620Z,7.73
2018-09-05T23:15:10.853Z,8.10
2018-09-05T23:19:26.456Z,7.00
2018-09-05T23:21:55.841Z,8.27
2018-09-05T23:24:24.936Z,6.80
2018-09-05T23:26:54.079Z,7.20
2018-09-05T23:29:23.274Z,7.27
2018-09-05T23:31:52.444Z,6.30
2018-09-05T23:34:21.625Z,7.00
2018-09-05T23:36:50.788Z,7.67
2018-09-05T23:39:20.125Z,6.97
2018-09-05T23:41:49.287Z,6.63
2018-09-05T23:44:18.417Z,5.80
2018-09-05T23:46:47.512Z,13.13
2018-09-05T23:49:16.770Z,7.17
2018-09-05T23:51:45.877Z,8.33
2018-09-05T23:54:15.064Z,6.17
2018-09-05T23:56:44.275Z,6.17
2018-09-05T23:59:13.396Z,5.77
